createdAt,value
2023-01-30T00:07:38.610Z,2486.08586
2023-01-30T00:22:46.467Z,2456.46247
2023-01-30T00:37:54.406Z,2304.38572
2023-01-30T00:52:56.466Z,2138.86722
2023-01-30T01:07:58.284Z,1969.14084
2023-01-30T01:23:00.138Z,2171.79953
2023-01-30T01:38:01.985Z,2149.15848
2023-01-30T01:53:03.925Z,2036.47466
2023-01-30T02:08:05.782Z,1949.09141
2023-01-30T02:23:07.635Z,1091.20571
2023-01-30T02:38:09.439Z,694.32692
2023-01-30T02:53:11.270Z,596.02069
2023-01-30T03:08:13.098Z,465.13647
2023-01-30T03:23:14.909Z,394.65301
2023-01-30T03:38:16.771Z,375.2792
2023-01-30T03:53:18.663Z,369.38654
2023-01-30T04:08:20.516Z,416.25091
2023-01-30T04:23:22.380Z,1166.23201
2023-01-30T04:38:24.250Z,1266.54115
2023-01-30T04:53:26.113Z,1192.17132
2023-01-30T05:08:27.960Z,801.4359
2023-01-30T05:23:29.793Z,831.782
2023-01-30T05:38:31.673Z,1274.97672
2023-01-30T05:53:33.557Z,1685.53509
2023-01-30T06:08:35.407Z,1932.22833
2023-01-30T06:23:37.288Z,1850.82923
2023-01-30T06:38:39.128Z,2039.57432
2023-01-30T06:53:41.087Z,1957.63381
2023-01-30T07:08:43.007Z,2152.61095
2023-01-30T07:23:44.904Z,2191.33329
2023-01-30T07:38:46.888Z,2530.68984
2023-01-30T07:53:48.909Z,2497.6706
2023-01-30T08:08:50.870Z,2386.46534
2023-01-30T08:23:52.788Z,2282.79437
2023-01-30T08:38:54.709Z,2100.31398
2023-01-30T08:53:56.605Z,1974.94523
2023-01-30T09:08:58.650Z,1131.75726
2023-01-30T09:24:00.600Z,1524.4601
2023-01-30T09:39:02.563Z,1803.49982
2023-01-30T09:54:04.459Z,1933.62243
2023-01-30T10:09:06.375Z,2125.29789
2023-01-30T10:24:08.321Z,2320.34683
2023-01-30T10:39:10.240Z,2394.99604
2023-01-30T10:54:12.144Z,2463.23581
2023-01-30T11:09:14.085Z,2454.21297
2023-01-30T11:24:16.010Z,2481.482
2023-01-30T11:39:17.916Z,2533.0818
2023-01-30T11:54:19.854Z,2599.41856
2023-01-30T12:09:21.766Z,2622.30972
2023-01-30T12:24:23.703Z,2696.17758
2023-01-30T12:39:25.632Z,2791.66719
2023-01-30T12:54:27.531Z,2894.169
2023-01-30T13:09:29.435Z,2919.39051
2023-01-30T13:24:31.358Z,2897.29783
2023-01-30T13:39:33.258Z,2909.88109
2023-01-30T13:54:35.181Z,2913.04401
2023-01-30T14:09:37.060Z,2589.3725
2023-01-30T14:24:38.951Z,1119.46583
2023-01-30T14:39:40.864Z,1348.08904
2023-01-30T14:54:42.830Z,1554.52485
2023-01-30T15:09:44.722Z,1733.50632
2023-01-30T15:24:46.677Z,1892.65586
2023-01-30T15:39:48.615Z,2034.92837
2023-01-30T15:54:50.518Z,2177.0923
2023-01-30T16:10:05.943Z,2322.35753
2023-01-30T16:25:09.077Z,2445.25599
2023-01-30T16:40:10.976Z,1942.02948
2023-01-30T16:55:12.892Z,1918.39706
2023-01-30T17:10:14.869Z,2133.75847
2023-01-30T17:25:16.815Z,2269.26384
2023-01-30T17:40:19.099Z,2363.31621
2023-01-30T17:55:21.923Z,2429.73759
2023-01-30T18:10:24.021Z,2514.07181
2023-01-30T18:25:25.955Z,2562.14201
2023-01-30T18:40:27.846Z,2591.87673
2023-01-30T18:55:29.927Z,2617.18802
2023-01-30T19:10:31.852Z,2688.06471
2023-01-30T19:25:33.750Z,2729.12476
2023-01-30T19:40:35.612Z,2715.29941
2023-01-30T19:55:37.539Z,2754.36846
2023-01-30T20:10:39.440Z,2757.20217
2023-01-30T20:25:41.328Z,2701.61342
2023-01-30T20:40:43.307Z,2809.22484
2023-01-30T20:55:45.284Z,2821.05316
2023-01-30T21:10:47.204Z,2935.37841
2023-01-30T21:25:49.112Z,2981.09063
2023-01-30T21:40:51.042Z,2964.6023
2023-01-30T21:55:52.977Z,3050.65501
2023-01-30T22:10:55.097Z,3029.96091
2023-01-30T22:25:57.397Z,3033.39041
2023-01-30T22:40:59.357Z,2935.37841
2023-01-30T22:56:01.318Z,2925.76472
2023-01-30T23:11:03.346Z,2967.88536
2023-01-30T23:26:05.261Z,2996.08768
2023-01-30T23:41:07.228Z,2994.41389
2023-01-30T23:56:09.143Z,2991.07196
